Time;durP1;ratioP1;P1;durP2;ratioP2;P2;SDS_P1;SDS_P2;PMS_P1;PMS_P2;Temp;Humidity;BMP_temperature;BMP_pressure;BME280_temperature;BME280_humidity;BME280_pressure;Samples;Min_cycle;Max_cycle;Signal;HPM_P1;HPM_P2
2020/12/18 00:01:31;;;;;;;33.15;19.10;;;6.10;99.90;;;;;;4193711;28;20028;-76
2020/12/18 00:03:32;;;;;;;37.17;20.02;;;6.00;99.90;;;;;;4192976;28;20017;-76
2020/12/18 00:05:32;;;;;;;38.17;19.95;;;6.00;99.90;;;;;;4194055;28;20063;-76
2020/12/18 00:07:33;;;;;;;37.55;19.30;;;6.00;99.90;;;;;;4225745;28;20039;-76
2020/12/18 00:09:35;;;;;;;28.83;17.67;;;6.10;99.90;;;;;;4189368;28;20044;-76
2020/12/18 00:11:36;;;;;;;33.22;20.92;;;6.10;99.90;;;;;;4206288;28;20111;-77
2020/12/18 00:13:37;;;;;;;34.08;19.25;;;6.20;99.90;;;;;;4175711;28;20458;-77
2020/12/18 00:15:37;;;;;;;30.55;19.90;;;6.20;99.90;;;;;;4176975;28;20025;-76
2020/12/18 00:17:38;;;;;;;32.40;18.50;;;6.20;99.90;;;;;;4209035;28;20032;-76
2020/12/18 00:19:39;;;;;;;32.00;19.83;;;6.10;99.90;;;;;;4178354;28;20025;-76
2020/12/18 00:21:39;;;;;;;41.45;20.17;;;6.10;99.90;;;;;;4177397;28;20041;-76
2020/12/18 00:23:40;;;;;;;39.47;19.00;;;6.10;99.90;;;;;;4178399;28;20025;-76
2020/12/18 00:25:46;;;;;;;34.90;18.48;;;6.10;99.90;;;;;;4210074;28;20024;-77
2020/12/18 00:27:49;;;;;;;30.20;17.63;;;6.00;99.90;;;;;;4178966;28;20033;-76
2020/12/18 00:29:49;;;;;;;36.35;17.85;;;6.10;99.90;;;;;;4194840;28;20112;-76
2020/12/18 00:31:50;;;;;;;34.83;18.50;;;6.10;99.90;;;;;;4227160;28;20118;-76
2020/12/18 00:33:50;;;;;;;30.38;16.88;;;6.20;99.90;;;;;;4193792;28;20056;-77
2020/12/18 00:35:51;;;;;;;36.70;20.48;;;6.20;99.90;;;;;;4193839;28;20125;-76
2020/12/18 00:37:52;;;;;;;37.53;19.20;;;6.20;99.90;;;;;;4185063;28;20411;-76
2020/12/18 00:39:52;;;;;;;34.03;17.02;;;6.20;99.90;;;;;;4192724;28;20033;-77
2020/12/18 00:41:54;;;;;;;31.38;16.65;;;6.20;99.90;;;;;;4195112;28;20058;-77
2020/12/18 00:43:54;;;;;;;35.38;17.90;;;6.10;99.90;;;;;;4194883;28;20082;-76
2020/12/18 00:45:55;;;;;;;34.08;18.58;;;6.20;99.90;;;;;;4227246;28;20432;-76
2020/12/18 00:47:56;;;;;;;31.67;17.55;;;6.10;99.90;;;;;;4194902;28;20028;-79
2020/12/18 00:49:56;;;;;;;34.28;17.73;;;6.20;99.90;;;;;;4194518;28;20052;-78
2020/12/18 00:51:57;;;;;;;36.40;19.50;;;6.20;99.90;;;;;;4193233;28;20066;-78
2020/12/18 00:53:57;;;;;;;37.90;19.02;;;6.20;99.90;;;;;;4194882;28;20027;-75
2020/12/18 00:55:58;;;;;;;45.67;19.38;;;6.10;99.90;;;;;;4194862;28;20056;-78
2020/12/18 00:57:59;;;;;;;32.00;18.38;;;6.10;99.90;;;;;;4194859;28;20111;-78
2020/12/18 00:59:59;;;;;;;35.33;18.50;;;6.10;99.90;;;;;;4194975;28;20379;-76
2020/12/18 01:02:03;;;;;;;38.75;18.45;;;6.00;99.90;;;;;;4193235;28;20127;-76
2020/12/18 01:04:04;;;;;;;35.00;17.90;;;6.00;99.90;;;;;;4194655;28;20548;-76
2020/12/18 01:06:06;;;;;;;38.47;20.45;;;6.00;99.90;;;;;;4194803;28;20099;-75
2020/12/18 01:08:07;;;;;;;35.78;18.00;;;6.10;99.90;;;;;;4193282;28;20383;-76
2020/12/18 01:10:09;;;;;;;35.58;19.02;;;6.00;99.90;;;;;;4194848;28;20120;-78
2020/12/18 01:12:13;;;;;;;36.88;18.30;;;6.00;99.90;;;;;;4194560;28;20074;-76
2020/12/18 01:14:15;;;;;;;34.50;19.55;;;6.00;99.90;;;;;;4193346;28;20039;-76
2020/12/18 01:16:16;;;;;;;35.67;20.17;;;6.10;99.90;;;;;;4194726;28;20511;-76
2020/12/18 01:18:16;;;;;;;37.25;18.90;;;6.10;99.90;;;;;;4194775;28;20113;-77
2020/12/18 01:20:17;;;;;;;45.85;20.67;;;6.10;99.90;;;;;;4193239;28;20085;-76
2020/12/18 01:22:18;;;;;;;34.83;17.77;;;6.10;99.90;;;;;;4193111;28;20392;-76
2020/12/18 01:24:19;;;;;;;38.42;18.92;;;6.00;99.90;;;;;;4193391;28;20801;-76
2020/12/18 01:26:19;;;;;;;37.25;17.35;;;6.00;99.90;;;;;;4192491;28;20043;-76
2020/12/18 01:28:20;;;;;;;37.92;20.27;;;6.00;99.90;;;;;;4192552;28;20036;-76
2020/12/18 01:30:21;;;;;;;36.72;20.17;;;6.00;99.90;;;;;;4193195;28;20039;-76
2020/12/18 01:32:21;;;;;;;35.38;16.92;;;6.00;99.90;;;;;;4192874;28;20028;-76
2020/12/18 01:34:22;;;;;;;35.80;18.55;;;6.00;99.90;;;;;;4225067;28;20024;-76
2020/12/18 01:36:23;;;;;;;33.13;18.35;;;6.00;99.90;;;;;;4193116;28;20029;-77
2020/12/18 01:38:24;;;;;;;39.63;19.15;;;6.00;99.90;;;;;;4186793;28;20087;-76
2020/12/18 01:40:24;;;;;;;36.45;19.42;;;6.00;99.90;;;;;;4194533;28;20340;-76
2020/12/18 01:42:25;;;;;;;37.65;16.98;;;6.00;99.90;;;;;;4196176;28;20020;-76
2020/12/18 01:44:26;;;;;;;37.97;18.95;;;5.90;99.90;;;;;;4194304;28;20028;-76
2020/12/18 01:46:29;;;;;;;40.33;19.10;;;6.00;99.90;;;;;;4189558;28;20085;-77
2020/12/18 01:48:31;;;;;;;35.08;19.45;;;5.90;99.90;;;;;;4178973;28;20051;-77
2020/12/18 01:50:31;;;;;;;45.67;19.27;;;5.90;99.90;;;;;;4177582;28;20035;-77
2020/12/18 01:52:34;;;;;;;37.67;20.08;;;6.00;99.90;;;;;;4177615;28;20041;-77
2020/12/18 01:54:34;;;;;;;36.78;19.60;;;6.00;99.90;;;;;;4192796;28;20390;-77
2020/12/18 01:56:36;;;;;;;32.55;17.77;;;5.90;99.90;;;;;;4160750;28;20034;-76
2020/12/18 01:58:40;;;;;;;37.72;18.90;;;5.90;99.90;;;;;;4161068;28;20532;-76
2020/12/18 02:00:42;;;;;;;40.47;19.00;;;5.90;99.90;;;;;;4173346;28;20036;-76
2020/12/18 02:02:43;;;;;;;37.85;18.75;;;5.80;99.90;;;;;;4193873;28;20120;-77
2020/12/18 02:04:45;;;;;;;37.38;19.40;;;5.90;99.90;;;;;;4178761;28;20472;-76
2020/12/18 02:06:53;;;;;;;30.92;18.23;;;5.90;99.90;;;;;;4180593;28;20018;-77
2020/12/18 02:08:53;;;;;;;40.10;17.70;;;5.90;99.90;;;;;;4172164;28;20128;-76
2020/12/18 02:10:56;;;;;;;41.13;19.00;;;5.90;99.90;;;;;;4178513;28;20052;-76
2020/12/18 02:12:57;;;;;;;41.10;17.80;;;5.90;99.90;;;;;;4170085;28;20017;-76
2020/12/18 02:14:58;;;;;;;38.35;18.55;;;5.90;99.90;;;;;;4179023;28;20260;-76
2020/12/18 02:16:59;;;;;;;36.53;18.67;;;5.90;99.90;;;;;;4180270;28;20112;-76
2020/12/18 02:19:00;;;;;;;35.10;17.15;;;5.90;99.90;;;;;;4180197;28;20029;-76
2020/12/18 02:21:03;;;;;;;41.90;17.92;;;5.80;99.90;;;;;;4180359;28;20067;-76
2020/12/18 02:23:04;;;;;;;;;;;5.80;99.90;;;;;;4179067;28;20025;-76
2020/12/18 02:25:07;;;;;;;;;;;5.80;99.90;;;;;;4179231;28;20007;-77
2020/12/18 02:27:10;;;;;;;;;;;5.90;99.90;;;;;;4212630;28;20002;-77
2020/12/18 02:29:11;;;;;;;;;;;5.80;99.90;;;;;;4192352;28;20003;-76
2020/12/18 02:31:11;;;;;;;;;;;5.80;99.90;;;;;;4195346;28;19908;-76
2020/12/18 02:33:12;;;;;;;;;;;5.80;99.90;;;;;;4195839;28;19991;-76
2020/12/18 02:35:12;;;;;;;;;;;5.80;99.90;;;;;;4229310;28;19943;-76
2020/12/18 02:37:13;;;;;;;;;;;5.80;99.90;;;;;;4193714;28;20340;-76
2020/12/18 02:39:14;;;;;;;;;;;5.70;99.90;;;;;;4223584;28;20358;-76
2020/12/18 02:41:14;;;;;;;;;;;5.70;99.90;;;;;;4195850;28;19965;-75
2020/12/18 02:43:15;;;;;;;;;;;5.60;99.90;;;;;;4196654;28;19912;-75
2020/12/18 02:45:15;;;;;;;;;;;5.60;99.90;;;;;;4196903;28;19957;-76
2020/12/18 02:47:16;;;;;;;;;;;5.70;99.90;;;;;;4196729;28;19908;-76
2020/12/18 02:49:16;;;;;;;;;;;5.60;99.90;;;;;;4194975;28;19965;-75
2020/12/18 02:51:17;;;;;;;;;;;5.70;99.90;;;;;;4195667;28;20022;-75
2020/12/18 02:53:18;;;;;;;;;;;5.80;99.90;;;;;;4196545;28;19909;-75
2020/12/18 02:55:19;;;;;;;;;;;5.80;99.90;;;;;;4196740;28;19912;-76
2020/12/18 02:57:19;;;;;;;;;;;5.70;99.90;;;;;;4195110;28;19912;-76
2020/12/18 02:59:20;;;;;;;;;;;5.70;99.90;;;;;;4195422;28;19959;-75
2020/12/18 03:01:20;;;;;;;;;;;5.70;99.90;;;;;;4195238;28;19909;-75
2020/12/18 03:03:21;;;;;;;;;;;5.60;99.90;;;;;;4195163;28;19920;-75
2020/12/18 03:05:22;;;;;;;;;;;5.70;99.90;;;;;;4195025;28;19915;-75
2020/12/18 03:07:22;;;;;;;;;;;5.70;99.90;;;;;;4195224;28;19912;-75
2020/12/18 03:09:23;;;;;;;;;;;5.70;99.90;;;;;;4196474;28;19935;-75
2020/12/18 03:11:24;;;;;;;;;;;5.70;99.90;;;;;;4196805;28;19955;-75
2020/12/18 03:13:24;;;;;;;;;;;5.70;99.90;;;;;;4195216;28;19915;-75
2020/12/18 03:15:25;;;;;;;;;;;5.70;99.90;;;;;;4194659;28;19916;-75
2020/12/18 03:17:25;;;;;;;;;;;5.80;99.90;;;;;;4195047;28;19939;-75
2020/12/18 03:19:26;;;;;;;;;;;5.70;99.90;;;;;;4194895;28;19909;-76
2020/12/18 03:21:26;;;;;;;;;;;5.70;99.90;;;;;;4196425;28;19930;-75
2020/12/18 03:23:27;;;;;;;;;;;5.70;99.90;;;;;;4194955;28;19963;-76
2020/12/18 03:25:27;;;;;;;;;;;5.70;99.90;;;;;;4196152;28;19908;-75
2020/12/18 03:27:28;;;;;;;;;;;5.70;99.90;;;;;;4196177;28;19908;-76
2020/12/18 03:29:28;;;;;;;;;;;5.70;99.90;;;;;;4194505;28;19920;-75
2020/12/18 03:31:29;;;;;;;;;;;5.70;99.90;;;;;;4186580;28;19916;-75
2020/12/18 03:33:30;;;;;;;;;;;5.70;99.90;;;;;;4177836;28;19978;-75
2020/12/18 03:35:30;;;;;;;;;;;5.80;99.90;;;;;;4176925;28;19931;-75
2020/12/18 03:37:31;;;;;;;;;;;5.80;99.90;;;;;;4176846;28;20299;-76
2020/12/18 03:39:32;;;;;;;;;;;5.80;99.90;;;;;;4209997;28;20398;-76
2020/12/18 03:41:33;;;;;;;;;;;5.80;99.90;;;;;;4176399;28;19912;-76
2020/12/18 03:43:34;;;;;;;;;;;5.80;99.90;;;;;;4176742;28;19916;-75
2020/12/18 03:45:34;;;;;;;;;;;5.80;99.90;;;;;;4176569;28;19909;-75
2020/12/18 03:47:35;;;;;;;;;;;5.80;99.90;;;;;;4176608;28;20352;-75
2020/12/18 03:49:35;;;;;;;;;;;5.80;99.90;;;;;;4177855;28;19917;-77
2020/12/18 03:51:36;;;;;;;;;;;5.70;99.90;;;;;;4179333;28;19916;-77
2020/12/18 03:53:36;;;;;;;;;;;5.70;99.90;;;;;;4177009;28;19932;-76
2020/12/18 03:55:37;;;;;;;;;;;5.70;99.90;;;;;;4176434;28;19940;-77
2020/12/18 03:57:38;;;;;;;;;;;5.70;99.90;;;;;;4177688;28;19909;-77
2020/12/18 03:59:38;;;;;;;;;;;5.60;99.90;;;;;;4176018;28;19927;-77
2020/12/18 04:01:39;;;;;;;;;;;5.60;99.90;;;;;;4176715;28;19997;-77
2020/12/18 04:03:39;;;;;;;;;;;5.60;99.90;;;;;;4177338;28;19913;-77
2020/12/18 04:05:40;;;;;;;;;;;5.60;99.90;;;;;;4176276;28;19909;-76
2020/12/18 04:07:40;;;;;;;;;;;5.60;99.90;;;;;;4176344;28;19909;-76
2020/12/18 04:09:41;;;;;;;;;;;5.70;99.90;;;;;;4177663;28;20294;-77
2020/12/18 04:11:41;;;;;;;;;;;5.70;99.90;;;;;;4178102;28;20518;-77
2020/12/18 04:13:42;;;;;;;;;;;5.70;99.90;;;;;;4184046;28;19912;-77
2020/12/18 04:15:43;;;;;;;;;;;5.80;99.90;;;;;;4177907;28;19909;-77
2020/12/18 04:17:45;;;;;;;;;;;5.80;99.90;;;;;;4211038;28;19912;-77
2020/12/18 04:19:45;;;;;;;;;;;5.90;99.90;;;;;;4177454;28;19908;-76
2020/12/18 04:21:46;;;;;;;;;;;5.90;99.90;;;;;;4178978;28;19975;-76
2020/12/18 04:23:46;;;;;;;;;;;5.90;99.90;;;;;;4177600;28;20356;-77
2020/12/18 04:25:47;;;;;;;;;;;5.90;99.90;;;;;;4178773;28;19920;-77
2020/12/18 04:27:48;;;;;;;;;;;5.90;99.90;;;;;;4210706;28;19916;-77
2020/12/18 04:29:48;;;;;;;;;;;5.80;99.90;;;;;;4177403;28;20379;-77
2020/12/18 04:31:49;;;;;;;;;;;5.80;99.90;;;;;;4179104;28;20390;-77
2020/12/18 04:33:50;;;;;;;;;;;5.80;99.90;;;;;;4177609;28;19995;-76
2020/12/18 04:35:50;;;;;;;;;;;5.90;99.90;;;;;;4177307;28;19972;-76
2020/12/18 04:37:52;;;;;;;;;;;5.90;99.90;;;;;;4177147;28;19909;-76
2020/12/18 04:39:52;;;;;;;;;;;5.90;99.90;;;;;;4178569;28;20007;-76
2020/12/18 04:41:53;;;;;;;;;;;5.90;99.90;;;;;;4177336;28;19999;-77
2020/12/18 04:43:54;;;;;;;;;;;5.90;99.90;;;;;;4178836;28;20272;-77
2020/12/18 04:45:56;;;;;;;;;;;5.80;99.90;;;;;;4177332;28;20318;-76
2020/12/18 04:47:57;;;;;;;;;;;5.80;99.90;;;;;;4178853;28;19940;-76
2020/12/18 04:49:59;;;;;;;;;;;5.90;99.90;;;;;;4177575;28;20299;-76
2020/12/18 04:52:00;;;;;;;;;;;5.90;99.90;;;;;;4177414;28;19947;-76
2020/12/18 04:54:03;;;;;;;;;;;5.90;99.90;;;;;;4210420;28;19918;-78
2020/12/18 04:56:09;;;;;;;;;;;5.90;99.90;;;;;;4177314;28;19916;-77
2020/12/18 04:58:10;;;;;;;;;;;5.90;99.90;;;;;;4210474;28;19912;-76
2020/12/18 05:00:11;;;;;;;;;;;5.80;99.90;;;;;;4178913;28;20050;-77
2020/12/18 05:02:12;;;;;;;;;;;5.80;99.90;;;;;;4177271;28;19909;-77
2020/12/18 05:04:14;;;;;;;;;;;5.80;99.90;;;;;;4178611;28;19967;-76
2020/12/18 05:06:15;;;;;;;;;;;5.80;99.90;;;;;;4177252;28;20280;-77
2020/12/18 05:08:15;;;;;;;;;;;5.70;99.90;;;;;;4177350;28;19951;-77
2020/12/18 05:10:16;;;;;;;;;;;5.70;99.90;;;;;;4177146;28;19958;-77
2020/12/18 05:12:17;;;;;;;;;;;5.80;99.90;;;;;;4180882;28;19915;-77
2020/12/18 05:14:17;;;;;;;;;;;5.80;99.90;;;;;;4179924;28;20356;-76
2020/12/18 05:16:19;;;;;;;;;;;5.80;99.90;;;;;;4181378;28;20633;-77
2020/12/18 05:18:21;;;;;;;;;;;5.80;99.90;;;;;;4181455;28;19936;-77
2020/12/18 05:20:23;;;;;;;;;;;5.80;99.90;;;;;;4178655;28;19939;-77
2020/12/18 05:22:24;;;;;;;;;;;5.80;99.90;;;;;;4212857;28;19908;-77
2020/12/18 05:24:25;;;;;;;;;;;5.70;99.90;;;;;;4181067;28;19920;-77
2020/12/18 05:26:28;;;;;;;;;;;5.70;99.90;;;;;;4180260;28;19917;-77
2020/12/18 05:28:35;;;;;;;;;;;5.80;99.90;;;;;;4179567;28;19924;-77
2020/12/18 05:30:35;;;;;;;;;;;5.80;99.90;;;;;;4180163;28;20003;-77
2020/12/18 05:32:36;;;;;;;;;;;5.80;99.90;;;;;;4180313;28;19909;-76
2020/12/18 05:34:38;;;;;;;;;;;5.90;99.90;;;;;;4180501;28;19917;-77
2020/12/18 05:36:41;;;;;;;;;;;5.90;99.90;;;;;;4179352;28;19909;-76
2020/12/18 05:38:41;;;;;;;;;;;6.00;99.90;;;;;;4181424;28;19915;-76
2020/12/18 05:40:46;;;;;;;;;;;6.00;99.90;;;;;;4212806;28;19923;-77
2020/12/18 05:42:47;;;;;;;;;;;6.00;99.90;;;;;;4181122;28;19909;-76
2020/12/18 05:44:48;;;;;;;;;;;6.10;99.90;;;;;;4180036;28;20007;-76
2020/12/18 05:46:50;;;;;;;;;;;6.10;99.90;;;;;;4178735;28;19935;-76
2020/12/18 05:49:00;;;;;;;;;;;6.10;99.90;;;;;;4213371;28;19912;-76
2020/12/18 05:51:01;;;;;;;;;;;6.10;99.90;;;;;;4178614;28;20011;-77
2020/12/18 05:53:03;;;;;;;;;;;6.10;99.90;;;;;;4179669;28;19924;-76
2020/12/18 05:55:10;;;;;;;;;;;6.10;99.90;;;;;;4180473;28;20414;-76
2020/12/18 05:57:12;;;;;;;;;;;6.20;99.90;;;;;;4178867;28;19912;-75
2020/12/18 05:59:14;;;;;;;;;;;6.20;99.90;;;;;;4180382;28;19913;-76
2020/12/18 06:01:16;;;;;;;;;;;6.20;99.90;;;;;;4179463;28;20391;-76
2020/12/18 06:03:19;;;;;;;;;;;6.20;99.90;;;;;;4178195;28;19908;-76
2020/12/18 06:05:20;;;;;;;;;;;6.10;99.90;;;;;;4178256;28;20007;-76
2020/12/18 06:07:20;;;;;;;;;;;6.10;99.90;;;;;;4161550;28;20411;-76
2020/12/18 06:09:22;;;;;;;;;;;6.10;99.90;;;;;;4187050;28;20805;-76
2020/12/18 06:11:23;;;;;;;;;;;6.10;99.90;;;;;;4179334;28;19946;-75
2020/12/18 06:13:30;;;;;;;;;;;6.10;99.90;;;;;;4177312;28;19940;-76
2020/12/18 06:15:32;;;;;;;;;;;6.10;99.90;;;;;;4181349;28;20275;-76
2020/12/18 06:17:35;;;;;;;;;;;6.10;99.90;;;;;;4191389;28;19969;-76
2020/12/18 06:19:39;;;;;;;;;;;6.10;99.90;;;;;;4190523;28;19920;-76
2020/12/18 06:21:39;;;;;;;;;;;6.10;99.90;;;;;;4188873;28;19948;-75
2020/12/18 06:23:44;;;;;;;;;;;6.10;99.90;;;;;;4190395;28;19919;-76
2020/12/18 06:25:46;;;;;;;;;;;6.10;99.90;;;;;;4191026;28;19913;-75
2020/12/18 06:27:52;;;;;;;;;;;6.10;99.90;;;;;;4193150;28;19917;-76
2020/12/18 06:29:52;;;;;;;;;;;6.10;99.90;;;;;;4190272;28;19925;-77
2020/12/18 06:31:57;;;;;;;;;;;6.10;99.90;;;;;;4194558;28;19908;-77
2020/12/18 06:33:59;;;;;;;;;;;6.10;99.90;;;;;;4190560;28;19955;-76
2020/12/18 06:36:00;;;;;;;;;;;6.10;99.90;;;;;;4192463;28;19909;-75
2020/12/18 06:38:13;;;;;;;;;;;6.10;99.90;;;;;;4187297;28;20367;-77
2020/12/18 06:40:30;;;;;;;;;;;6.10;99.90;;;;;;4191975;28;20274;-77
2020/12/18 06:42:31;;;;;;;;;;;6.10;99.90;;;;;;4193100;28;19908;-76
2020/12/18 06:44:42;;;;;;;;;;;6.10;99.90;;;;;;4190136;28;20302;-76
2020/12/18 06:47:02;;;;;;;;;;;6.10;99.90;;;;;;4190827;28;19909;-76
2020/12/18 06:49:03;;;;;;;;;;;6.10;99.90;;;;;;4180192;28;19917;-77
2020/12/18 06:51:23;;;;;;;;;;;6.10;99.90;;;;;;4220116;28;19915;-76
2020/12/18 06:53:24;;;;;;;;;;;6.20;99.90;;;;;;4192261;28;19908;-77
2020/12/18 06:55:30;;;;;;;;;;;6.20;99.90;;;;;;4187319;28;19914;-77
2020/12/18 06:57:31;;;;;;;;;;;6.20;99.90;;;;;;4191961;28;19908;-77
2020/12/18 06:59:31;;;;;;;;;;;6.30;99.90;;;;;;4193672;28;20290;-77
2020/12/18 07:01:32;;;;;;;;;;;6.30;99.90;;;;;;4194177;28;20204;-77
2020/12/18 07:03:36;;;;;;;;;;;6.20;99.90;;;;;;4187750;28;19985;-77
2020/12/18 07:05:38;;;;;;;;;;;6.20;99.90;;;;;;4191078;28;19923;-76
2020/12/18 07:07:44;;;;;;;;;;;6.30;99.90;;;;;;4192880;28;20324;-76
2020/12/18 07:09:45;;;;;;;;;;;6.30;99.90;;;;;;4192407;28;19923;-77
2020/12/18 07:11:47;;;;;;;;;;;6.30;99.90;;;;;;4190128;28;20008;-76
2020/12/18 07:13:48;;;;;;;;;;;6.30;99.90;;;;;;4222334;28;20046;-77
2020/12/18 07:15:52;;;;;;;;;;;6.30;99.90;;;;;;4175921;28;19998;-76
2020/12/18 07:17:55;;;;;;;;;;;6.20;99.90;;;;;;4171359;28;19913;-76
2020/12/18 07:19:56;;;;;;;;;;;6.30;99.90;;;;;;4210908;28;19915;-77
2020/12/18 07:22:00;;;;;;;;;;;6.30;99.90;;;;;;4176583;28;19913;-77
2020/12/18 07:24:01;;;;;;;;;;;6.30;99.90;;;;;;4178309;28;20006;-78
2020/12/18 07:26:03;;;;;;;;;;;6.30;99.90;;;;;;4178469;28;19917;-77
2020/12/18 07:28:06;;;;;;;;;;;6.30;99.90;;;;;;4178288;28;19909;-77
2020/12/18 07:30:11;;;;;;;;;;;6.40;99.90;;;;;;4177654;28;19964;-77
2020/12/18 07:32:12;;;;;;;;;;;6.40;99.90;;;;;;4177913;28;19909;-77
2020/12/18 07:34:12;;;;;;;;;;;6.40;99.90;;;;;;4176050;28;19920;-77
2020/12/18 07:36:13;;;;;;;;;;;6.50;99.90;;;;;;4176989;28;20251;-77
2020/12/18 07:38:18;;;;;;;;;;;6.60;99.90;;;;;;4178418;28;19944;-76
2020/12/18 07:40:20;;;;;;;;;;;6.60;99.90;;;;;;4179517;28;19970;-77
2020/12/18 07:42:21;;;;;;;;;;;6.70;99.90;;;;;;4178094;28;19975;-77
2020/12/18 07:44:21;;;;;;;;;;;6.80;99.90;;;;;;4179479;28;19936;-77
2020/12/18 07:46:22;;;;;;;;;;;6.80;99.90;;;;;;4177739;28;19998;-76
2020/12/18 07:48:28;;;;;;;;;;;6.90;99.90;;;;;;4179300;28;19966;-77
2020/12/18 07:50:29;;;;;;;;;;;7.00;99.90;;;;;;4178098;28;19912;-76
2020/12/18 07:52:29;;;;;;;;;;;7.00;99.90;;;;;;4178041;28;19968;-77
2020/12/18 07:54:30;;;;;;;;;;;7.10;99.90;;;;;;4191497;28;20013;-76
2020/12/18 07:56:31;;;;;;;;;;;7.20;99.90;;;;;;4176289;28;19916;-77
2020/12/18 07:58:32;;;;;;;;;;;7.20;99.90;;;;;;4218947;28;19954;-76
2020/12/18 08:00:33;;;;;;;;;;;7.20;99.90;;;;;;4191461;28;19916;-75
2020/12/18 08:02:33;;;;;;;;;;;7.30;99.90;;;;;;4184969;28;19966;-76
2020/12/18 08:04:34;;;;;;;;;;;7.30;99.90;;;;;;4190348;28;19908;-75
2020/12/18 08:06:37;;;;;;;;;;;7.30;99.90;;;;;;4190485;28;19919;-76
2020/12/18 08:08:38;;;;;;;;;;;7.30;99.90;;;;;;4178154;28;20391;-75
2020/12/18 08:10:41;;;;;;;;;;;7.30;99.90;;;;;;4178245;28;19912;-76
2020/12/18 08:12:41;;;;;;;;;;;7.30;99.90;;;;;;4181210;28;19912;-75
2020/12/18 08:14:42;;;;;;;;;;;7.40;99.90;;;;;;4184784;28;20382;-76
2020/12/18 08:16:43;;;;;;;;;;;7.40;99.90;;;;;;4179740;28;19920;-75
2020/12/18 08:18:46;;;;;;;;;;;7.40;99.90;;;;;;4178282;28;19916;-76
2020/12/18 08:20:46;;;;;;;;;;;7.50;99.90;;;;;;4210169;28;19908;-77
2020/12/18 08:22:47;;;;;;;;;;;7.50;99.90;;;;;;4177960;28;19943;-76
2020/12/18 08:24:48;;;;;;;;;;;7.50;99.90;;;;;;4189568;28;19948;-75
2020/12/18 08:27:03;;;;;;;;;;;7.50;99.90;;;;;;4185011;28;19962;-75
2020/12/18 08:29:04;;;;;;;;;;;7.50;99.90;;;;;;4185574;28;19921;-75
2020/12/18 08:31:06;;;;;;;;;;;7.60;99.90;;;;;;4176675;28;20358;-76
2020/12/18 08:33:07;;;;;;;;;;;7.60;99.90;;;;;;4177775;28;19909;-76
2020/12/18 08:35:08;;;;;;;;;;;7.60;99.90;;;;;;4176670;28;19915;-76
2020/12/18 08:37:08;;;;;;;;;;;7.60;99.90;;;;;;4175451;28;19909;-76
2020/12/18 08:39:11;;;;;;;;;;;7.60;99.90;;;;;;4175711;28;19916;-75
2020/12/18 08:41:12;;;;;;;;;;;7.60;99.90;;;;;;4175809;28;19920;-76
2020/12/18 08:43:13;;;;;;;;;;;7.70;99.90;;;;;;4177696;28;20017;-75
2020/12/18 08:45:14;;;;;;;;;;;7.80;99.90;;;;;;4210047;28;19908;-76
2020/12/18 08:47:25;;;;;;;;;;;7.80;99.90;;;;;;4180879;28;19982;-75
2020/12/18 08:49:27;;;;;;;;;;;7.80;99.90;;;;;;4191270;28;19940;-76
2020/12/18 08:51:27;;;;;;;;;;;7.90;99.90;;;;;;4181555;28;19909;-76
2020/12/18 08:53:33;;;;;;;;;;;7.90;99.90;;;;;;4180572;28;20000;-75
2020/12/18 08:55:33;;;;;;;;;;;7.90;99.90;;;;;;4179451;28;20375;-74
2020/12/18 08:57:36;;;;;;;;;;;7.90;99.90;;;;;;4178924;28;20072;-75
2020/12/18 08:59:37;;;;;;;;;;;7.90;99.90;;;;;;4179366;28;19919;-75
2020/12/18 09:01:37;;;;;;;;;;;7.90;99.90;;;;;;4218074;28;19916;-75
2020/12/18 09:03:41;;;;;;;;;;;8.00;99.90;;;;;;4180780;28;19916;-74
2020/12/18 09:05:42;;;;;;;;;;;8.00;99.90;;;;;;4180751;28;19944;-75
2020/12/18 09:07:46;;;;;;;;;;;8.10;99.90;;;;;;4179505;28;19938;-76
2020/12/18 09:09:53;;;;;;;;;;;8.10;99.90;;;;;;4180257;28;19912;-76
2020/12/18 09:11:54;;;;;;;;;;;8.10;99.90;;;;;;4178819;28;19908;-76
2020/12/18 09:13:55;;;;;;;;;;;8.20;99.90;;;;;;4180624;28;19993;-76
2020/12/18 09:15:56;;;;;;;;;;;8.20;99.90;;;;;;4180302;28;19917;-76
2020/12/18 09:18:07;;;;;;;;;;;8.20;99.90;;;;;;4178883;28;20319;-76
2020/12/18 09:20:08;;;;;;;;;;;8.30;99.90;;;;;;4212023;28;20283;-76
2020/12/18 09:22:08;;;;;;;;;;;8.30;99.90;;;;;;4179115;28;19925;-76
2020/12/18 09:24:19;;;;;;;;;;;8.40;99.90;;;;;;4178927;28;19916;-76
2020/12/18 09:26:24;;;;;;;;;;;8.40;99.90;;;;;;4179092;28;20340;-76
2020/12/18 09:28:25;;;;;;;;;;;8.40;99.90;;;;;;4178682;28;19912;-76
2020/12/18 09:30:26;;;;;;;;;;;8.40;99.90;;;;;;4178991;28;19948;-76
2020/12/18 09:32:27;;;;;;;;;;;8.50;99.90;;;;;;4180351;28;20508;-76
2020/12/18 09:34:30;;;;;;;;;;;8.50;99.90;;;;;;4178802;28;19975;-76
2020/12/18 09:36:31;;;;;;;;;;;8.50;99.90;;;;;;4188943;28;19954;-77
2020/12/18 09:38:42;;;;;;;;;;;8.50;99.90;;;;;;4193579;28;20347;-77
2020/12/18 09:40:42;;;;;;;;;;;8.50;99.90;;;;;;4181551;28;19916;-77
2020/12/18 09:42:43;;;;;;;;;;;8.50;99.90;;;;;;4178642;28;19952;-76
2020/12/18 09:44:43;;;;;;;;;;;8.50;99.90;;;;;;4179801;28;19915;-76
2020/12/18 09:46:44;;;;;;;;;;;8.50;99.90;;;;;;4180357;28;19966;-76
2020/12/18 09:48:45;;;;;;;;;;;8.40;99.90;;;;;;4206605;28;20337;-76
2020/12/18 09:50:48;;;;;;;;;;;8.40;99.90;;;;;;4175594;28;19955;-77
2020/12/18 09:52:49;;;;;;;;;;;8.40;99.90;;;;;;4178385;28;19935;-76
2020/12/18 09:54:49;;;;;;;;;;;8.40;99.90;;;;;;4179834;28;20015;-77
2020/12/18 09:56:52;;;;;;;;;;;8.40;99.90;;;;;;4177878;28;20290;-77
2020/12/18 09:58:53;;;;;;;;;;;8.40;99.90;;;;;;4178304;28;19912;-77
2020/12/18 10:00:54;;;;;;;;;;;8.40;99.90;;;;;;4179996;28;19999;-77
2020/12/18 10:02:55;;;;;;;;;;;8.40;99.90;;;;;;4177266;28;19912;-77
2020/12/18 10:04:56;;;;;;;;;;;8.50;99.90;;;;;;4177464;28;19935;-76
2020/12/18 10:06:59;;;;;;;;;;;8.50;99.90;;;;;;4178319;28;19944;-76
2020/12/18 10:09:00;;;;;;;;;;;8.50;99.90;;;;;;4179683;28;19963;-76
2020/12/18 10:11:00;;;;;;;;;;;8.60;99.90;;;;;;4178393;28;19913;-77
2020/12/18 10:13:01;;;;;;;;;;;8.60;99.90;;;;;;4179199;28;20062;-78
2020/12/18 10:15:02;;;;;;;;;;;8.70;99.90;;;;;;4220363;28;20324;-78
2020/12/18 10:17:02;;;;;;;;;;;8.70;99.90;;;;;;4179810;28;19936;-78
2020/12/18 10:19:03;;;;;;;;;;;8.70;99.90;;;;;;4178160;28;20352;-78
2020/12/18 10:21:04;;;;;;;;;;;8.80;99.90;;;;;;4179740;28;19940;-76
2020/12/18 10:23:04;;;;;;;;;;;8.90;99.90;;;;;;4179483;28;20071;-77
2020/12/18 10:25:05;;;;;;;;;;;8.90;99.90;;;;;;4179146;28;19912;-77
2020/12/18 10:27:05;;;;;;;;;;;9.00;99.90;;;;;;4187808;28;19942;-77
2020/12/18 10:29:06;;;;;;;;;;;9.10;99.90;;;;;;4186006;28;19924;-77
2020/12/18 10:31:07;;;;;;;;;;;9.10;99.90;;;;;;4178044;28;20377;-77
2020/12/18 10:33:07;;;;;;;;;;;9.10;99.90;;;;;;4211291;28;19982;-77
2020/12/18 10:35:08;;;;;;;;;;;9.20;99.90;;;;;;4188118;28;19942;-77
2020/12/18 10:37:09;;;;;;;;;;;9.30;99.90;;;;;;4182540;28;19944;-77
2020/12/18 10:39:09;;;;;;;;;;;9.30;99.90;;;;;;4179144;28;19908;-77
2020/12/18 10:41:10;;;;;;;;;;;9.30;99.90;;;;;;4177563;28;20359;-77
2020/12/18 10:43:12;;;;;;;;;;;9.30;99.90;;;;;;4177823;28;19934;-77
2020/12/18 10:45:13;;;;;;;;;;;9.40;99.90;;;;;;4179432;28;19935;-77
2020/12/18 10:47:13;;;;;;;;;;;9.40;99.90;;;;;;4179225;28;19952;-77
2020/12/18 10:49:15;;;;;;;;;;;9.40;99.90;;;;;;4177684;28;19966;-76
2020/12/18 10:51:16;;;;;;;;;;;9.40;99.90;;;;;;4179231;28;20016;-77
2020/12/18 10:53:16;;;;;;;;;;;9.60;99.90;;;;;;4177432;28;19909;-77
2020/12/18 10:55:17;;;;;;;;;;;10.00;99.90;;;;;;4179275;28;19909;-78
2020/12/18 10:57:18;;;;;;;;;;;10.20;99.90;;;;;;4177843;28;19932;-78
2020/12/18 10:59:18;;;;;;;;;;;10.10;99.90;;;;;;4177904;28;20399;-78
2020/12/18 11:01:19;;;;;;;;;;;10.00;99.90;;;;;;4178720;28;19942;-78
2020/12/18 11:03:21;;;;;;;;;;;10.20;99.90;;;;;;4177419;28;20322;-78
2020/12/18 11:05:21;;;;;;;;;;;10.70;99.90;;;;;;4178968;28;19912;-78
2020/12/18 11:07:22;;;;;;;;;;;10.70;99.90;;;;;;4185009;28;19909;-78
2020/12/18 11:09:22;;;;;;;;;;;10.70;99.90;;;;;;4176525;28;20279;-77
2020/12/18 11:11:23;;;;;;;;;;;10.90;99.90;;;;;;4210452;28;20256;-77
2020/12/18 11:13:24;;;;;;;;;;;11.00;99.90;;;;;;4177302;28;19962;-77
2020/12/18 11:15:25;;;;;;;;;;;11.30;99.90;;;;;;4177416;28;20003;-77
2020/12/18 11:17:27;;;;;;;;;;;11.50;99.90;;;;;;4178721;28;19909;-77
2020/12/18 11:19:28;;;;;;;;;;;11.50;99.90;;;;;;4178916;28;19908;-77
2020/12/18 11:21:29;;;;;;;;;;;11.40;99.90;;;;;;4176864;28;20410;-76
2020/12/18 11:23:30;;;;;;;;;;;11.60;99.90;;;;;;4178910;28;19909;-77
2020/12/18 11:25:30;;;;;;;;;;;11.90;99.90;;;;;;4178735;28;19909;-77
2020/12/18 11:27:31;;;;;;;;;;;11.80;99.90;;;;;;4178820;28;19913;-76
2020/12/18 11:29:31;;;;;;;;;;;12.00;99.90;;;;;;4178549;28;20232;-77
2020/12/18 11:31:37;;;;;;;;;;;12.20;99.90;;;;;;4178821;28;20680;-77
2020/12/18 11:33:38;;;;;;;;;;;12.00;99.90;;;;;;4179124;28;20413;-76
2020/12/18 11:35:38;;;;;;;;;;;12.00;99.90;;;;;;4178029;28;19915;-77
2020/12/18 11:37:40;;;;;;;;;;;12.20;99.90;;;;;;4178922;28;19908;-77